sensor_id;sensor_type;location;lat;lon;timestamp;P1;durP1;ratioP1;P2;durP2;ratioP2
9256;SDS011;4665;51.368;6.782;2022-11-20T00:02:16;15.97;;;10.40;;
9256;SDS011;4665;51.368;6.782;2022-11-20T00:04:42;13.43;;;10.77;;
9256;SDS011;4665;51.368;6.782;2022-11-20T00:07:07;16.53;;;11.03;;
9256;SDS011;4665;51.368;6.782;2022-11-20T00:09:32;15.30;;;11.67;;
9256;SDS011;4665;51.368;6.782;2022-11-20T00:11:58;12.87;;;10.00;;
9256;SDS011;4665;51.368;6.782;2022-11-20T00:14:23;16.17;;;11.30;;
9256;SDS011;4665;51.368;6.782;2022-11-20T00:16:48;17.97;;;11.60;;
9256;SDS011;4665;51.368;6.782;2022-11-20T00:19:14;13.83;;;10.87;;
9256;SDS011;4665;51.368;6.782;2022-11-20T00:21:39;12.27;;;9.67;;
9256;SDS011;4665;51.368;6.782;2022-11-20T00:24:05;16.37;;;10.93;;
9256;SDS011;4665;51.368;6.782;2022-11-20T00:26:32;15.27;;;11.20;;
9256;SDS011;4665;51.368;6.782;2022-11-20T00:28:59;14.70;;;10.63;;
9256;SDS011;4665;51.368;6.782;2022-11-20T00:31:26;13.23;;;10.70;;
9256;SDS011;4665;51.368;6.782;2022-11-20T00:33:52;15.43;;;10.60;;
9256;SDS011;4665;51.368;6.782;2022-11-20T00:36:22;18.10;;;12.23;;
9256;SDS011;4665;51.368;6.782;2022-11-20T00:38:55;15.33;;;11.77;;
9256;SDS011;4665;51.368;6.782;2022-11-20T00:41:22;16.93;;;12.13;;
9256;SDS011;4665;51.368;6.782;2022-11-20T00:43:48;17.20;;;12.00;;
9256;SDS011;4665;51.368;6.782;2022-11-20T00:46:15;15.80;;;11.80;;
9256;SDS011;4665;51.368;6.782;2022-11-20T00:48:42;14.43;;;11.67;;
9256;SDS011;4665;51.368;6.782;2022-11-20T00:51:08;14.50;;;10.90;;
9256;SDS011;4665;51.368;6.782;2022-11-20T00:53:33;16.00;;;12.00;;
9256;SDS011;4665;51.368;6.782;2022-11-20T00:56:00;14.37;;;11.83;;
9256;SDS011;4665;51.368;6.782;2022-11-20T00:58:32;14.67;;;11.47;;
9256;SDS011;4665;51.368;6.782;2022-11-20T01:01:09;16.67;;;11.87;;
9256;SDS011;4665;51.368;6.782;2022-11-20T01:03:41;16.00;;;12.23;;
9256;SDS011;4665;51.368;6.782;2022-11-20T01:06:11;13.60;;;10.80;;
9256;SDS011;4665;51.368;6.782;2022-11-20T01:08:39;15.90;;;11.90;;
9256;SDS011;4665;51.368;6.782;2022-11-20T01:11:08;15.10;;;11.60;;
9256;SDS011;4665;51.368;6.782;2022-11-20T01:13:35;17.50;;;12.43;;
9256;SDS011;4665;51.368;6.782;2022-11-20T01:16:03;16.50;;;12.40;;
9256;SDS011;4665;51.368;6.782;2022-11-20T01:18:36;15.50;;;11.33;;
9256;SDS011;4665;51.368;6.782;2022-11-20T01:21:04;15.93;;;12.27;;
9256;SDS011;4665;51.368;6.782;2022-11-20T01:23:35;15.23;;;11.03;;
9256;SDS011;4665;51.368;6.782;2022-11-20T01:26:03;15.33;;;11.77;;
9256;SDS011;4665;51.368;6.782;2022-11-20T01:28:30;13.40;;;10.27;;
9256;SDS011;4665;51.368;6.782;2022-11-20T01:30:56;13.87;;;11.00;;
9256;SDS011;4665;51.368;6.782;2022-11-20T01:33:22;14.73;;;12.03;;
9256;SDS011;4665;51.368;6.782;2022-11-20T01:35:47;14.47;;;11.57;;
9256;SDS011;4665;51.368;6.782;2022-11-20T01:38:14;14.77;;;12.00;;
9256;SDS011;4665;51.368;6.782;2022-11-20T01:40:40;14.37;;;11.20;;
9256;SDS011;4665;51.368;6.782;2022-11-20T01:45:56;15.10;;;11.73;;
9256;SDS011;4665;51.368;6.782;2022-11-20T01:48:38;14.40;;;11.53;;
9256;SDS011;4665;51.368;6.782;2022-11-20T01:51:23;16.80;;;12.77;;
9256;SDS011;4665;51.368;6.782;2022-11-20T01:53:59;15.90;;;12.30;;
9256;SDS011;4665;51.368;6.782;2022-11-20T01:56:28;15.03;;;12.63;;
9256;SDS011;4665;51.368;6.782;2022-11-20T01:58:58;16.63;;;11.63;;
9256;SDS011;4665;51.368;6.782;2022-11-20T02:01:26;15.20;;;11.80;;
9256;SDS011;4665;51.368;6.782;2022-11-20T02:03:52;15.60;;;12.07;;
9256;SDS011;4665;51.368;6.782;2022-11-20T02:06:25;14.53;;;11.87;;
9256;SDS011;4665;51.368;6.782;2022-11-20T02:08:55;15.10;;;11.63;;
9256;SDS011;4665;51.368;6.782;2022-11-20T02:11:21;15.37;;;11.60;;
9256;SDS011;4665;51.368;6.782;2022-11-20T02:13:47;14.80;;;11.47;;
9256;SDS011;4665;51.368;6.782;2022-11-20T02:16:27;16.97;;;11.77;;
9256;SDS011;4665;51.368;6.782;2022-11-20T02:18:56;16.47;;;12.47;;
9256;SDS011;4665;51.368;6.782;2022-11-20T02:21:26;13.00;;;11.10;;
9256;SDS011;4665;51.368;6.782;2022-11-20T02:24:06;15.23;;;11.10;;
9256;SDS011;4665;51.368;6.782;2022-11-20T02:26:38;17.93;;;12.57;;
9256;SDS011;4665;51.368;6.782;2022-11-20T02:29:07;15.10;;;11.73;;
9256;SDS011;4665;51.368;6.782;2022-11-20T02:31:36;16.23;;;12.90;;
9256;SDS011;4665;51.368;6.782;2022-11-20T02:34:04;15.13;;;11.53;;
9256;SDS011;4665;51.368;6.782;2022-11-20T02:36:29;13.30;;;11.10;;
9256;SDS011;4665;51.368;6.782;2022-11-20T02:38:57;17.33;;;12.57;;
9256;SDS011;4665;51.368;6.782;2022-11-20T02:41:30;16.30;;;11.70;;
9256;SDS011;4665;51.368;6.782;2022-11-20T02:44:04;15.27;;;11.40;;
9256;SDS011;4665;51.368;6.782;2022-11-20T02:46:30;16.00;;;12.40;;
9256;SDS011;4665;51.368;6.782;2022-11-20T02:48:57;15.23;;;11.27;;
9256;SDS011;4665;51.368;6.782;2022-11-20T02:51:22;15.67;;;11.47;;
9256;SDS011;4665;51.368;6.782;2022-11-20T02:53:48;16.10;;;11.07;;
9256;SDS011;4665;51.368;6.782;2022-11-20T02:56:14;15.70;;;11.90;;
9256;SDS011;4665;51.368;6.782;2022-11-20T02:58:40;15.13;;;12.03;;
9256;SDS011;4665;51.368;6.782;2022-11-20T03:01:05;17.47;;;13.00;;
9256;SDS011;4665;51.368;6.782;2022-11-20T03:03:31;15.63;;;12.50;;
9256;SDS011;4665;51.368;6.782;2022-11-20T03:05:58;16.03;;;11.93;;
9256;SDS011;4665;51.368;6.782;2022-11-20T03:08:24;18.00;;;13.20;;
9256;SDS011;4665;51.368;6.782;2022-11-20T03:10:49;15.43;;;12.20;;
9256;SDS011;4665;51.368;6.782;2022-11-20T03:13:15;15.23;;;11.77;;
9256;SDS011;4665;51.368;6.782;2022-11-20T03:15:40;14.97;;;12.20;;
9256;SDS011;4665;51.368;6.782;2022-11-20T03:18:05;15.00;;;11.40;;
9256;SDS011;4665;51.368;6.782;2022-11-20T03:20:32;16.17;;;12.57;;
9256;SDS011;4665;51.368;6.782;2022-11-20T03:22:58;17.27;;;13.07;;
9256;SDS011;4665;51.368;6.782;2022-11-20T03:25:24;17.47;;;13.07;;
9256;SDS011;4665;51.368;6.782;2022-11-20T03:27:49;16.23;;;13.03;;
9256;SDS011;4665;51.368;6.782;2022-11-20T03:30:15;16.23;;;12.07;;
9256;SDS011;4665;51.368;6.782;2022-11-20T03:32:40;18.00;;;12.93;;
9256;SDS011;4665;51.368;6.782;2022-11-20T03:35:06;17.03;;;11.97;;
9256;SDS011;4665;51.368;6.782;2022-11-20T03:37:32;16.00;;;12.30;;
9256;SDS011;4665;51.368;6.782;2022-11-20T03:39:57;15.30;;;12.73;;
9256;SDS011;4665;51.368;6.782;2022-11-20T03:42:22;16.57;;;12.23;;
9256;SDS011;4665;51.368;6.782;2022-11-20T03:45:06;15.17;;;12.13;;
9256;SDS011;4665;51.368;6.782;2022-11-20T03:47:32;16.70;;;12.87;;
9256;SDS011;4665;51.368;6.782;2022-11-20T03:49:57;17.37;;;12.70;;
9256;SDS011;4665;51.368;6.782;2022-11-20T03:52:23;14.60;;;12.40;;
9256;SDS011;4665;51.368;6.782;2022-11-20T03:54:48;16.57;;;13.00;;
9256;SDS011;4665;51.368;6.782;2022-11-20T03:57:13;17.07;;;12.90;;
9256;SDS011;4665;51.368;6.782;2022-11-20T03:59:39;17.00;;;12.80;;
9256;SDS011;4665;51.368;6.782;2022-11-20T04:02:04;15.60;;;12.47;;
9256;SDS011;4665;51.368;6.782;2022-11-20T04:04:29;17.87;;;13.40;;
9256;SDS011;4665;51.368;6.782;2022-11-20T04:06:55;16.43;;;11.90;;
9256;SDS011;4665;51.368;6.782;2022-11-20T04:09:20;18.13;;;13.50;;
9256;SDS011;4665;51.368;6.782;2022-11-20T04:11:46;16.67;;;12.50;;
9256;SDS011;4665;51.368;6.782;2022-11-20T04:14:14;16.57;;;12.90;;
9256;SDS011;4665;51.368;6.782;2022-11-20T04:16:40;17.43;;;12.10;;
9256;SDS011;4665;51.368;6.782;2022-11-20T04:19:09;15.87;;;12.03;;
9256;SDS011;4665;51.368;6.782;2022-11-20T04:21:36;14.90;;;11.67;;
9256;SDS011;4665;51.368;6.782;2022-11-20T04:24:02;15.47;;;12.27;;
9256;SDS011;4665;51.368;6.782;2022-11-20T04:26:28;14.90;;;12.10;;
9256;SDS011;4665;51.368;6.782;2022-11-20T04:28:55;14.80;;;11.63;;
9256;SDS011;4665;51.368;6.782;2022-11-20T04:31:22;17.40;;;12.83;;
9256;SDS011;4665;51.368;6.782;2022-11-20T04:33:49;15.27;;;12.00;;
9256;SDS011;4665;51.368;6.782;2022-11-20T04:36:19;18.73;;;13.93;;
9256;SDS011;4665;51.368;6.782;2022-11-20T04:38:46;15.37;;;11.63;;
9256;SDS011;4665;51.368;6.782;2022-11-20T04:41:16;16.20;;;12.93;;
9256;SDS011;4665;51.368;6.782;2022-11-20T04:43:50;17.20;;;11.93;;
9256;SDS011;4665;51.368;6.782;2022-11-20T04:46:30;15.93;;;11.43;;
9256;SDS011;4665;51.368;6.782;2022-11-20T04:48:58;14.50;;;11.73;;
9256;SDS011;4665;51.368;6.782;2022-11-20T04:51:24;18.17;;;12.23;;
9256;SDS011;4665;51.368;6.782;2022-11-20T04:53:49;14.23;;;10.37;;
9256;SDS011;4665;51.368;6.782;2022-11-20T04:56:15;15.60;;;12.07;;
9256;SDS011;4665;51.368;6.782;2022-11-20T04:58:41;14.30;;;11.60;;
9256;SDS011;4665;51.368;6.782;2022-11-20T05:01:08;16.70;;;13.27;;
9256;SDS011;4665;51.368;6.782;2022-11-20T05:03:37;17.43;;;13.93;;
9256;SDS011;4665;51.368;6.782;2022-11-20T05:06:03;19.40;;;13.33;;
9256;SDS011;4665;51.368;6.782;2022-11-20T05:08:30;14.93;;;12.43;;
9256;SDS011;4665;51.368;6.782;2022-11-20T05:10:59;17.27;;;12.70;;
9256;SDS011;4665;51.368;6.782;2022-11-20T05:13:28;17.20;;;13.50;;
9256;SDS011;4665;51.368;6.782;2022-11-20T05:15:54;18.77;;;14.00;;
9256;SDS011;4665;51.368;6.782;2022-11-20T05:18:19;16.67;;;13.30;;
9256;SDS011;4665;51.368;6.782;2022-11-20T05:20:45;21.07;;;15.50;;
9256;SDS011;4665;51.368;6.782;2022-11-20T05:23:10;18.17;;;14.30;;
9256;SDS011;4665;51.368;6.782;2022-11-20T05:25:35;20.33;;;14.87;;
9256;SDS011;4665;51.368;6.782;2022-11-20T05:28:01;17.70;;;14.63;;
9256;SDS011;4665;51.368;6.782;2022-11-20T05:30:26;17.70;;;13.83;;
9256;SDS011;4665;51.368;6.782;2022-11-20T05:32:52;17.60;;;13.97;;
9256;SDS011;4665;51.368;6.782;2022-11-20T05:35:17;19.97;;;15.23;;
9256;SDS011;4665;51.368;6.782;2022-11-20T05:37:42;20.27;;;15.60;;
9256;SDS011;4665;51.368;6.782;2022-11-20T05:40:08;18.93;;;14.33;;
9256;SDS011;4665;51.368;6.782;2022-11-20T05:42:34;20.70;;;14.90;;
9256;SDS011;4665;51.368;6.782;2022-11-20T05:45:01;17.60;;;14.03;;
9256;SDS011;4665;51.368;6.782;2022-11-20T05:47:28;18.13;;;14.73;;
9256;SDS011;4665;51.368;6.782;2022-11-20T05:49:57;19.23;;;13.53;;
9256;SDS011;4665;51.368;6.782;2022-11-20T05:52:22;19.50;;;15.00;;
9256;SDS011;4665;51.368;6.782;2022-11-20T05:54:48;18.10;;;14.00;;
9256;SDS011;4665;51.368;6.782;2022-11-20T05:57:13;19.83;;;14.70;;
9256;SDS011;4665;51.368;6.782;2022-11-20T05:59:38;17.23;;;13.50;;
9256;SDS011;4665;51.368;6.782;2022-11-20T06:02:04;20.53;;;15.63;;
9256;SDS011;4665;51.368;6.782;2022-11-20T06:04:29;17.53;;;13.63;;
9256;SDS011;4665;51.368;6.782;2022-11-20T06:06:54;22.47;;;14.40;;
9256;SDS011;4665;51.368;6.782;2022-11-20T06:09:20;18.43;;;13.87;;
9256;SDS011;4665;51.368;6.782;2022-11-20T06:11:45;17.00;;;13.47;;
9256;SDS011;4665;51.368;6.782;2022-11-20T06:14:10;19.83;;;15.23;;
9256;SDS011;4665;51.368;6.782;2022-11-20T06:16:35;19.30;;;14.57;;
9256;SDS011;4665;51.368;6.782;2022-11-20T06:19:01;17.23;;;12.80;;
9256;SDS011;4665;51.368;6.782;2022-11-20T06:21:26;16.07;;;12.90;;
9256;SDS011;4665;51.368;6.782;2022-11-20T06:23:52;15.77;;;12.50;;
9256;SDS011;4665;51.368;6.782;2022-11-20T06:26:22;17.00;;;13.33;;
9256;SDS011;4665;51.368;6.782;2022-11-20T06:28:49;16.77;;;13.63;;
9256;SDS011;4665;51.368;6.782;2022-11-20T06:31:16;18.67;;;13.83;;
9256;SDS011;4665;51.368;6.782;2022-11-20T06:33:42;18.23;;;13.50;;
9256;SDS011;4665;51.368;6.782;2022-11-20T06:36:09;18.23;;;13.70;;
9256;SDS011;4665;51.368;6.782;2022-11-20T06:38:35;19.77;;;13.73;;
9256;SDS011;4665;51.368;6.782;2022-11-20T06:41:02;14.73;;;12.30;;
9256;SDS011;4665;51.368;6.782;2022-11-20T06:43:28;18.40;;;13.63;;
9256;SDS011;4665;51.368;6.782;2022-11-20T06:45:55;14.37;;;12.10;;
9256;SDS011;4665;51.368;6.782;2022-11-20T06:48:22;17.63;;;13.80;;
9256;SDS011;4665;51.368;6.782;2022-11-20T06:50:48;18.33;;;13.70;;
9256;SDS011;4665;51.368;6.782;2022-11-20T06:53:13;18.10;;;14.00;;
9256;SDS011;4665;51.368;6.782;2022-11-20T06:55:41;17.67;;;14.30;;
9256;SDS011;4665;51.368;6.782;2022-11-20T06:58:08;19.60;;;14.50;;
9256;SDS011;4665;51.368;6.782;2022-11-20T07:00:34;18.17;;;14.33;;
9256;SDS011;4665;51.368;6.782;2022-11-20T07:03:02;18.20;;;14.83;;
9256;SDS011;4665;51.368;6.782;2022-11-20T07:05:32;18.30;;;14.43;;
9256;SDS011;4665;51.368;6.782;2022-11-20T07:07:58;17.57;;;13.60;;
9256;SDS011;4665;51.368;6.782;2022-11-20T07:10:24;18.10;;;13.70;;
9256;SDS011;4665;51.368;6.782;2022-11-20T07:12:50;23.93;;;15.50;;
9256;SDS011;4665;51.368;6.782;2022-11-20T07:15:16;16.10;;;13.43;;
9256;SDS011;4665;51.368;6.782;2022-11-20T07:17:42;16.60;;;12.93;;
9256;SDS011;4665;51.368;6.782;2022-11-20T07:20:08;20.00;;;14.50;;
9256;SDS011;4665;51.368;6.782;2022-11-20T07:22:33;20.97;;;15.13;;
9256;SDS011;4665;51.368;6.782;2022-11-20T07:24:59;20.60;;;15.13;;
9256;SDS011;4665;51.368;6.782;2022-11-20T07:27:24;15.57;;;13.43;;
9256;SDS011;4665;51.368;6.782;2022-11-20T07:29:49;22.00;;;16.07;;
9256;SDS011;4665;51.368;6.782;2022-11-20T07:32:15;23.30;;;16.40;;
9256;SDS011;4665;51.368;6.782;2022-11-20T07:34:40;19.50;;;14.07;;
9256;SDS011;4665;51.368;6.782;2022-11-20T07:37:05;17.90;;;13.33;;
9256;SDS011;4665;51.368;6.782;2022-11-20T07:39:31;19.73;;;14.30;;
9256;SDS011;4665;51.368;6.782;2022-11-20T07:41:56;22.13;;;15.67;;
9256;SDS011;4665;51.368;6.782;2022-11-20T07:44:21;17.60;;;14.00;;
9256;SDS011;4665;51.368;6.782;2022-11-20T07:46:47;21.07;;;16.23;;
9256;SDS011;4665;51.368;6.782;2022-11-20T07:49:12;22.80;;;16.47;;
9256;SDS011;4665;51.368;6.782;2022-11-20T07:51:37;22.73;;;15.20;;
9256;SDS011;4665;51.368;6.782;2022-11-20T07:54:03;18.00;;;15.43;;
9256;SDS011;4665;51.368;6.782;2022-11-20T07:56:28;20.73;;;15.77;;
9256;SDS011;4665;51.368;6.782;2022-11-20T07:58:54;20.07;;;15.00;;
9256;SDS011;4665;51.368;6.782;2022-11-20T08:01:19;18.47;;;14.27;;
9256;SDS011;4665;51.368;6.782;2022-11-20T08:03:44;19.83;;;14.67;;
9256;SDS011;4665;51.368;6.782;2022-11-20T08:06:10;22.03;;;15.97;;
9256;SDS011;4665;51.368;6.782;2022-11-20T08:08:35;22.57;;;16.00;;
9256;SDS011;4665;51.368;6.782;2022-11-20T08:11:00;18.77;;;14.37;;
9256;SDS011;4665;51.368;6.782;2022-11-20T08:13:46;20.67;;;15.70;;
9256;SDS011;4665;51.368;6.782;2022-11-20T08:16:30;21.47;;;15.33;;
9256;SDS011;4665;51.368;6.782;2022-11-20T08:18:55;18.90;;;14.63;;
9256;SDS011;4665;51.368;6.782;2022-11-20T08:21:21;18.03;;;14.33;;
9256;SDS011;4665;51.368;6.782;2022-11-20T08:23:46;18.60;;;14.00;;
9256;SDS011;4665;51.368;6.782;2022-11-20T08:26:11;18.40;;;14.53;;
9256;SDS011;4665;51.368;6.782;2022-11-20T08:28:37;18.50;;;14.67;;
9256;SDS011;4665;51.368;6.782;2022-11-20T08:31:02;18.00;;;13.13;;
9256;SDS011;4665;51.368;6.782;2022-11-20T08:33:29;17.73;;;14.13;;
9256;SDS011;4665;51.368;6.782;2022-11-20T08:35:58;18.83;;;14.80;;
9256;SDS011;4665;51.368;6.782;2022-11-20T08:38:24;18.13;;;14.20;;
9256;SDS011;4665;51.368;6.782;2022-11-20T08:40:50;19.50;;;15.13;;
9256;SDS011;4665;51.368;6.782;2022-11-20T08:43:34;19.37;;;14.57;;
9256;SDS011;4665;51.368;6.782;2022-11-20T08:45:59;16.67;;;13.67;;
9256;SDS011;4665;51.368;6.782;2022-11-20T08:48:24;22.83;;;16.07;;
9256;SDS011;4665;51.368;6.782;2022-11-20T08:50:50;20.10;;;15.00;;
9256;SDS011;4665;51.368;6.782;2022-11-20T08:53:15;20.53;;;15.53;;
9256;SDS011;4665;51.368;6.782;2022-11-20T08:55:40;19.23;;;15.07;;
9256;SDS011;4665;51.368;6.782;2022-11-20T08:58:06;18.80;;;14.87;;
9256;SDS011;4665;51.368;6.782;2022-11-20T09:00:32;18.13;;;14.27;;
9256;SDS011;4665;51.368;6.782;2022-11-20T09:02:58;16.17;;;14.20;;
9256;SDS011;4665;51.368;6.782;2022-11-20T09:05:25;20.77;;;14.87;;
9256;SDS011;4665;51.368;6.782;2022-11-20T09:07:51;19.63;;;14.07;;
9256;SDS011;4665;51.368;6.782;2022-11-20T09:10:16;19.63;;;15.03;;
9256;SDS011;4665;51.368;6.782;2022-11-20T09:12:42;17.33;;;14.10;;
9256;SDS011;4665;51.368;6.782;2022-11-20T09:15:07;17.80;;;14.07;;
9256;SDS011;4665;51.368;6.782;2022-11-20T09:17:33;17.20;;;13.00;;
9256;SDS011;4665;51.368;6.782;2022-11-20T09:19:58;14.43;;;12.10;;
9256;SDS011;4665;51.368;6.782;2022-11-20T09:22:23;16.20;;;13.07;;
9256;SDS011;4665;51.368;6.782;2022-11-20T09:24:49;16.80;;;13.10;;
9256;SDS011;4665;51.368;6.782;2022-11-20T09:27:14;16.43;;;13.47;;
9256;SDS011;4665;51.368;6.782;2022-11-20T09:29:40;16.70;;;13.23;;
9256;SDS011;4665;51.368;6.782;2022-11-20T09:32:05;17.30;;;13.23;;
9256;SDS011;4665;51.368;6.782;2022-11-20T09:34:30;14.47;;;12.53;;
9256;SDS011;4665;51.368;6.782;2022-11-20T09:36:56;17.33;;;12.77;;
9256;SDS011;4665;51.368;6.782;2022-11-20T09:39:21;16.27;;;12.67;;
9256;SDS011;4665;51.368;6.782;2022-11-20T09:52:36;17.17;;;13.47;;
9256;SDS011;4665;51.368;6.782;2022-11-20T09:55:20;16.90;;;12.90;;
9256;SDS011;4665;51.368;6.782;2022-11-20T09:57:46;15.73;;;12.23;;
9256;SDS011;4665;51.368;6.782;2022-11-20T10:00:16;14.87;;;12.30;;
9256;SDS011;4665;51.368;6.782;2022-11-20T10:02:52;15.27;;;12.23;;
9256;SDS011;4665;51.368;6.782;2022-11-20T10:08:17;19.10;;;12.93;;
9256;SDS011;4665;51.368;6.782;2022-11-20T10:10:49;16.10;;;13.70;;
9256;SDS011;4665;51.368;6.782;2022-11-20T10:13:20;15.53;;;12.13;;
9256;SDS011;4665;51.368;6.782;2022-11-20T10:26:58;17.47;;;12.87;;
9256;SDS011;4665;51.368;6.782;2022-11-20T10:30:02;15.67;;;12.70;;
9256;SDS011;4665;51.368;6.782;2022-11-20T10:32:35;14.63;;;11.77;;
9256;SDS011;4665;51.368;6.782;2022-11-20T10:35:14;13.53;;;11.23;;
9256;SDS011;4665;51.368;6.782;2022-11-20T10:37:46;14.30;;;12.07;;
9256;SDS011;4665;51.368;6.782;2022-11-20T10:42:51;17.70;;;11.57;;
9256;SDS011;4665;51.368;6.782;2022-11-20T10:47:49;13.13;;;10.43;;
9256;SDS011;4665;51.368;6.782;2022-11-20T10:50:19;15.10;;;11.40;;
9256;SDS011;4665;51.368;6.782;2022-11-20T10:58:13;15.73;;;12.03;;
9256;SDS011;4665;51.368;6.782;2022-11-20T11:00:42;15.67;;;11.37;;
9256;SDS011;4665;51.368;6.782;2022-11-20T11:03:41;15.87;;;12.10;;
9256;SDS011;4665;51.368;6.782;2022-11-20T11:06:07;13.23;;;10.57;;
9256;SDS011;4665;51.368;6.782;2022-11-20T11:08:49;13.20;;;11.07;;
9256;SDS011;4665;51.368;6.782;2022-11-20T11:11:20;16.77;;;12.10;;
9256;SDS011;4665;51.368;6.782;2022-11-20T11:13:48;12.77;;;10.47;;
9256;SDS011;4665;51.368;6.782;2022-11-20T11:16:23;13.97;;;11.53;;
9256;SDS011;4665;51.368;6.782;2022-11-20T11:18:51;14.57;;;11.77;;
9256;SDS011;4665;51.368;6.782;2022-11-20T11:21:23;15.87;;;12.30;;
9256;SDS011;4665;51.368;6.782;2022-11-20T11:24:00;15.27;;;12.27;;
9256;SDS011;4665;51.368;6.782;2022-11-20T11:26:29;16.23;;;12.30;;
9256;SDS011;4665;51.368;6.782;2022-11-20T11:28:55;18.50;;;13.00;;
9256;SDS011;4665;51.368;6.782;2022-11-20T11:31:31;19.63;;;13.27;;
9256;SDS011;4665;51.368;6.782;2022-11-20T11:34:18;17.00;;;12.30;;
9256;SDS011;4665;51.368;6.782;2022-11-20T11:36:52;17.13;;;12.73;;
9256;SDS011;4665;51.368;6.782;2022-11-20T11:39:21;17.00;;;12.27;;
9256;SDS011;4665;51.368;6.782;2022-11-20T11:41:47;15.40;;;11.67;;
9256;SDS011;4665;51.368;6.782;2022-11-20T11:44:17;15.20;;;11.33;;
9256;SDS011;4665;51.368;6.782;2022-11-20T11:47:05;14.63;;;11.47;;
9256;SDS011;4665;51.368;6.782;2022-11-20T11:49:43;16.57;;;11.67;;
9256;SDS011;4665;51.368;6.782;2022-11-20T11:59:53;18.67;;;12.50;;
9256;SDS011;4665;51.368;6.782;2022-11-20T12:05:03;16.70;;;12.67;;
9256;SDS011;4665;51.368;6.782;2022-11-20T12:07:41;15.30;;;12.33;;
9256;SDS011;4665;51.368;6.782;2022-11-20T12:10:21;15.93;;;12.43;;
9256;SDS011;4665;51.368;6.782;2022-11-20T12:12:54;15.57;;;11.43;;
9256;SDS011;4665;51.368;6.782;2022-11-20T12:15:30;17.40;;;12.43;;
9256;SDS011;4665;51.368;6.782;2022-11-20T12:17:58;15.83;;;11.70;;
9256;SDS011;4665;51.368;6.782;2022-11-20T12:20:25;16.47;;;12.03;;
9256;SDS011;4665;51.368;6.782;2022-11-20T12:23:05;16.40;;;11.80;;
9256;SDS011;4665;51.368;6.782;2022-11-20T12:25:54;14.23;;;11.33;;
9256;SDS011;4665;51.368;6.782;2022-11-20T12:36:57;14.57;;;11.43;;
9256;SDS011;4665;51.368;6.782;2022-11-20T12:39:41;17.33;;;12.30;;
9256;SDS011;4665;51.368;6.782;2022-11-20T12:48:29;17.23;;;12.40;;
9256;SDS011;4665;51.368;6.782;2022-11-20T13:02:30;15.23;;;11.70;;
9256;SDS011;4665;51.368;6.782;2022-11-20T13:07:41;16.33;;;11.83;;
9256;SDS011;4665;51.368;6.782;2022-11-20T13:10:13;14.23;;;11.43;;
9256;SDS011;4665;51.368;6.782;2022-11-20T13:12:54;15.60;;;11.73;;
9256;SDS011;4665;51.368;6.782;2022-11-20T13:18:08;15.60;;;11.60;;
9256;SDS011;4665;51.368;6.782;2022-11-20T13:20:35;16.60;;;12.57;;
9256;SDS011;4665;51.368;6.782;2022-11-20T13:23:05;17.67;;;12.77;;
9256;SDS011;4665;51.368;6.782;2022-11-20T13:25:35;15.90;;;12.27;;
9256;SDS011;4665;51.368;6.782;2022-11-20T13:30:36;17.90;;;12.80;;
9256;SDS011;4665;51.368;6.782;2022-11-20T13:36:05;17.33;;;11.63;;
9256;SDS011;4665;51.368;6.782;2022-11-20T13:38:49;16.77;;;12.43;;
9256;SDS011;4665;51.368;6.782;2022-11-20T13:41:26;17.63;;;13.17;;
9256;SDS011;4665;51.368;6.782;2022-11-20T13:44:10;19.07;;;13.17;;
9256;SDS011;4665;51.368;6.782;2022-11-20T13:46:40;19.53;;;13.43;;
9256;SDS011;4665;51.368;6.782;2022-11-20T13:49:09;17.40;;;12.50;;
9256;SDS011;4665;51.368;6.782;2022-11-20T13:51:43;16.77;;;13.50;;
9256;SDS011;4665;51.368;6.782;2022-11-20T13:59:30;17.70;;;13.43;;
9256;SDS011;4665;51.368;6.782;2022-11-20T14:02:17;17.57;;;13.53;;
9256;SDS011;4665;51.368;6.782;2022-11-20T14:04:49;18.77;;;13.60;;
9256;SDS011;4665;51.368;6.782;2022-11-20T14:07:17;16.57;;;12.77;;
9256;SDS011;4665;51.368;6.782;2022-11-20T14:09:55;17.50;;;13.67;;
9256;SDS011;4665;51.368;6.782;2022-11-20T14:12:23;17.77;;;13.10;;
9256;SDS011;4665;51.368;6.782;2022-11-20T14:14:56;21.53;;;14.17;;
9256;SDS011;4665;51.368;6.782;2022-11-20T14:19:59;20.67;;;15.20;;
9256;SDS011;4665;51.368;6.782;2022-11-20T14:22:31;18.47;;;13.77;;
9256;SDS011;4665;51.368;6.782;2022-11-20T14:25:04;19.83;;;14.30;;
9256;SDS011;4665;51.368;6.782;2022-11-20T14:27:40;20.43;;;14.20;;
9256;SDS011;4665;51.368;6.782;2022-11-20T14:30:14;22.20;;;15.33;;
9256;SDS011;4665;51.368;6.782;2022-11-20T14:32:42;20.17;;;14.27;;
9256;SDS011;4665;51.368;6.782;2022-11-20T14:35:09;18.17;;;14.00;;
9256;SDS011;4665;51.368;6.782;2022-11-20T14:37:44;21.37;;;14.60;;
9256;SDS011;4665;51.368;6.782;2022-11-20T14:40:23;20.70;;;14.87;;
9256;SDS011;4665;51.368;6.782;2022-11-20T14:42:55;20.40;;;14.10;;
9256;SDS011;4665;51.368;6.782;2022-11-20T14:45:22;21.10;;;14.53;;
9256;SDS011;4665;51.368;6.782;2022-11-20T14:47:49;20.57;;;15.00;;
9256;SDS011;4665;51.368;6.782;2022-11-20T14:50:23;25.20;;;16.07;;
9256;SDS011;4665;51.368;6.782;2022-11-20T14:52:53;23.40;;;15.70;;
9256;SDS011;4665;51.368;6.782;2022-11-20T14:58:03;20.60;;;15.30;;
9256;SDS011;4665;51.368;6.782;2022-11-20T15:00:52;25.33;;;16.53;;
9256;SDS011;4665;51.368;6.782;2022-11-20T15:03:33;25.20;;;16.70;;
9256;SDS011;4665;51.368;6.782;2022-11-20T15:06:04;26.53;;;16.97;;
9256;SDS011;4665;51.368;6.782;2022-11-20T15:08:31;24.93;;;16.07;;
9256;SDS011;4665;51.368;6.782;2022-11-20T15:10:56;23.90;;;16.03;;
9256;SDS011;4665;51.368;6.782;2022-11-20T15:15:54;22.13;;;15.70;;
9256;SDS011;4665;51.368;6.782;2022-11-20T15:18:37;28.97;;;18.43;;
9256;SDS011;4665;51.368;6.782;2022-11-20T15:21:13;30.23;;;20.13;;
9256;SDS011;4665;51.368;6.782;2022-11-20T15:23:40;26.13;;;18.33;;
9256;SDS011;4665;51.368;6.782;2022-11-20T15:26:06;23.50;;;16.37;;
9256;SDS011;4665;51.368;6.782;2022-11-20T15:28:34;25.93;;;17.57;;
9256;SDS011;4665;51.368;6.782;2022-11-20T15:31:02;30.67;;;18.80;;
9256;SDS011;4665;51.368;6.782;2022-11-20T15:33:29;23.93;;;16.80;;
9256;SDS011;4665;51.368;6.782;2022-11-20T15:35:55;23.60;;;16.27;;
9256;SDS011;4665;51.368;6.782;2022-11-20T15:38:20;22.70;;;15.70;;
9256;SDS011;4665;51.368;6.782;2022-11-20T15:40:46;24.00;;;16.10;;
9256;SDS011;4665;51.368;6.782;2022-11-20T15:43:11;25.80;;;16.30;;
9256;SDS011;4665;51.368;6.782;2022-11-20T15:48:14;21.30;;;15.73;;
9256;SDS011;4665;51.368;6.782;2022-11-20T15:53:19;24.30;;;16.13;;
9256;SDS011;4665;51.368;6.782;2022-11-20T15:55:44;21.87;;;15.67;;
9256;SDS011;4665;51.368;6.782;2022-11-20T15:58:10;23.40;;;15.70;;
9256;SDS011;4665;51.368;6.782;2022-11-20T16:00:35;21.97;;;15.50;;
9256;SDS011;4665;51.368;6.782;2022-11-20T16:03:00;23.63;;;16.60;;
9256;SDS011;4665;51.368;6.782;2022-11-20T16:05:29;25.40;;;16.37;;
9256;SDS011;4665;51.368;6.782;2022-11-20T16:07:55;20.30;;;13.97;;
9256;SDS011;4665;51.368;6.782;2022-11-20T16:10:21;20.23;;;14.40;;
9256;SDS011;4665;51.368;6.782;2022-11-20T16:12:46;22.47;;;14.93;;
9256;SDS011;4665;51.368;6.782;2022-11-20T16:15:30;19.57;;;14.67;;
9256;SDS011;4665;51.368;6.782;2022-11-20T16:18:11;21.87;;;14.67;;
9256;SDS011;4665;51.368;6.782;2022-11-20T16:20:39;18.43;;;13.23;;
9256;SDS011;4665;51.368;6.782;2022-11-20T16:23:05;17.67;;;13.60;;
9256;SDS011;4665;51.368;6.782;2022-11-20T16:25:31;20.77;;;13.63;;
9256;SDS011;4665;51.368;6.782;2022-11-20T16:27:57;21.83;;;14.03;;
9256;SDS011;4665;51.368;6.782;2022-11-20T16:30:23;21.97;;;14.90;;
9256;SDS011;4665;51.368;6.782;2022-11-20T16:32:48;20.80;;;14.60;;
9256;SDS011;4665;51.368;6.782;2022-11-20T16:35:13;18.63;;;13.60;;
9256;SDS011;4665;51.368;6.782;2022-11-20T16:37:39;20.93;;;14.30;;
9256;SDS011;4665;51.368;6.782;2022-11-20T16:40:05;19.23;;;14.83;;
9256;SDS011;4665;51.368;6.782;2022-11-20T16:42:34;19.23;;;14.00;;